sensor_id;sensor_type;location;lat;lon;timestamp;P1;durP1;ratioP1;P2;durP2;ratioP2
36411;SDS011;22445;52.100;5.176;2023-08-31T00:01:08;6.43;;;1.88;;
36411;SDS011;22445;52.100;5.176;2023-08-31T00:03:34;6.53;;;2.30;;
36411;SDS011;22445;52.100;5.176;2023-08-31T00:06:03;7.25;;;1.80;;
36411;SDS011;22445;52.100;5.176;2023-08-31T00:08:29;2.88;;;2.00;;
36411;SDS011;22445;52.100;5.176;2023-08-31T00:10:57;4.03;;;2.15;;
36411;SDS011;22445;52.100;5.176;2023-08-31T00:13:25;2.50;;;1.88;;
36411;SDS011;22445;52.100;5.176;2023-08-31T00:15:55;3.72;;;1.90;;
36411;SDS011;22445;52.100;5.176;2023-08-31T00:18:25;3.22;;;2.17;;
36411;SDS011;22445;52.100;5.176;2023-08-31T00:20:51;5.63;;;1.88;;
36411;SDS011;22445;52.100;5.176;2023-08-31T00:23:16;7.10;;;2.47;;
36411;SDS011;22445;52.100;5.176;2023-08-31T00:25:42;3.60;;;2.53;;
36411;SDS011;22445;52.100;5.176;2023-08-31T00:28:09;5.28;;;2.53;;
36411;SDS011;22445;52.100;5.176;2023-08-31T00:30:34;9.45;;;3.13;;
36411;SDS011;22445;52.100;5.176;2023-08-31T00:33:00;7.97;;;3.35;;
36411;SDS011;22445;52.100;5.176;2023-08-31T00:35:26;7.57;;;3.28;;
36411;SDS011;22445;52.100;5.176;2023-08-31T00:37:52;9.77;;;3.17;;
36411;SDS011;22445;52.100;5.176;2023-08-31T00:40:22;5.80;;;3.40;;
36411;SDS011;22445;52.100;5.176;2023-08-31T00:42:48;5.93;;;3.40;;
36411;SDS011;22445;52.100;5.176;2023-08-31T00:45:14;6.70;;;3.58;;
36411;SDS011;22445;52.100;5.176;2023-08-31T00:47:40;8.68;;;3.95;;
36411;SDS011;22445;52.100;5.176;2023-08-31T00:50:07;11.35;;;3.83;;
36411;SDS011;22445;52.100;5.176;2023-08-31T00:52:33;12.20;;;4.07;;
36411;SDS011;22445;52.100;5.176;2023-08-31T00:54:59;5.93;;;3.45;;
36411;SDS011;22445;52.100;5.176;2023-08-31T00:57:26;9.15;;;4.30;;
36411;SDS011;22445;52.100;5.176;2023-08-31T00:59:52;9.43;;;4.18;;
36411;SDS011;22445;52.100;5.176;2023-08-31T01:06:00;7.80;;;4.43;;
36411;SDS011;22445;52.100;5.176;2023-08-31T01:09:02;9.60;;;4.53;;
36411;SDS011;22445;52.100;5.176;2023-08-31T01:11:14;10.88;;;4.78;;
36411;SDS011;22445;52.100;5.176;2023-08-31T01:14:03;8.70;;;5.03;;
36411;SDS011;22445;52.100;5.176;2023-08-31T01:16:35;11.93;;;5.43;;
36411;SDS011;22445;52.100;5.176;2023-08-31T01:19:06;5.93;;;4.30;;
36411;SDS011;22445;52.100;5.176;2023-08-31T01:21:42;7.20;;;4.72;;
36411;SDS011;22445;52.100;5.176;2023-08-31T01:24:11;6.15;;;4.32;;
36411;SDS011;22445;52.100;5.176;2023-08-31T01:26:37;8.35;;;5.07;;
36411;SDS011;22445;52.100;5.176;2023-08-31T01:29:03;8.63;;;5.10;;
36411;SDS011;22445;52.100;5.176;2023-08-31T01:31:29;11.40;;;5.63;;
36411;SDS011;22445;52.100;5.176;2023-08-31T01:33:54;12.80;;;5.22;;
36411;SDS011;22445;52.100;5.176;2023-08-31T01:36:22;10.75;;;4.95;;
36411;SDS011;22445;52.100;5.176;2023-08-31T01:38:51;7.78;;;4.82;;
36411;SDS011;22445;52.100;5.176;2023-08-31T01:41:23;9.50;;;5.25;;
36411;SDS011;22445;52.100;5.176;2023-08-31T01:43:50;10.98;;;5.68;;
36411;SDS011;22445;52.100;5.176;2023-08-31T01:46:17;10.57;;;5.85;;
36411;SDS011;22445;52.100;5.176;2023-08-31T01:48:43;9.52;;;5.60;;
36411;SDS011;22445;52.100;5.176;2023-08-31T01:51:09;10.73;;;5.93;;
36411;SDS011;22445;52.100;5.176;2023-08-31T01:53:35;10.45;;;5.85;;
36411;SDS011;22445;52.100;5.176;2023-08-31T01:56:01;12.43;;;5.85;;
36411;SDS011;22445;52.100;5.176;2023-08-31T01:58:27;8.35;;;5.78;;
36411;SDS011;22445;52.100;5.176;2023-08-31T02:00:53;10.82;;;5.35;;
36411;SDS011;22445;52.100;5.176;2023-08-31T02:03:18;6.88;;;4.65;;
36411;SDS011;22445;52.100;5.176;2023-08-31T02:05:44;7.22;;;4.75;;
36411;SDS011;22445;52.100;5.176;2023-08-31T02:08:09;7.07;;;4.30;;
36411;SDS011;22445;52.100;5.176;2023-08-31T02:10:35;8.32;;;4.72;;
36411;SDS011;22445;52.100;5.176;2023-08-31T02:13:01;8.65;;;4.35;;
36411;SDS011;22445;52.100;5.176;2023-08-31T02:15:26;7.68;;;3.90;;
36411;SDS011;22445;52.100;5.176;2023-08-31T02:17:52;5.72;;;4.18;;
36411;SDS011;22445;52.100;5.176;2023-08-31T02:20:19;4.55;;;3.38;;
36411;SDS011;22445;52.100;5.176;2023-08-31T02:22:45;3.20;;;2.90;;
36411;SDS011;22445;52.100;5.176;2023-08-31T02:25:11;5.28;;;2.83;;
36411;SDS011;22445;52.100;5.176;2023-08-31T02:27:37;3.80;;;2.67;;
36411;SDS011;22445;52.100;5.176;2023-08-31T02:30:04;3.13;;;2.65;;
36411;SDS011;22445;52.100;5.176;2023-08-31T02:32:30;5.70;;;2.90;;
36411;SDS011;22445;52.100;5.176;2023-08-31T02:34:56;3.75;;;2.30;;
36411;SDS011;22445;52.100;5.176;2023-08-31T02:37:21;3.13;;;2.10;;
36411;SDS011;22445;52.100;5.176;2023-08-31T02:39:47;5.50;;;2.50;;
36411;SDS011;22445;52.100;5.176;2023-08-31T02:42:13;3.55;;;1.83;;
36411;SDS011;22445;52.100;5.176;2023-08-31T02:44:39;3.80;;;1.80;;
36411;SDS011;22445;52.100;5.176;2023-08-31T02:47:05;5.35;;;2.10;;
36411;SDS011;22445;52.100;5.176;2023-08-31T02:49:30;5.25;;;2.10;;
36411;SDS011;22445;52.100;5.176;2023-08-31T02:51:56;3.28;;;1.98;;
36411;SDS011;22445;52.100;5.176;2023-08-31T02:54:22;2.20;;;1.70;;
36411;SDS011;22445;52.100;5.176;2023-08-31T02:56:48;2.50;;;1.55;;
36411;SDS011;22445;52.100;5.176;2023-08-31T02:59:13;3.03;;;1.70;;
36411;SDS011;22445;52.100;5.176;2023-08-31T03:01:39;1.90;;;1.38;;
36411;SDS011;22445;52.100;5.176;2023-08-31T03:04:05;2.35;;;1.42;;
36411;SDS011;22445;52.100;5.176;2023-08-31T03:06:33;3.83;;;1.45;;
36411;SDS011;22445;52.100;5.176;2023-08-31T03:08:59;2.40;;;1.30;;
36411;SDS011;22445;52.100;5.176;2023-08-31T03:11:27;3.05;;;1.40;;
36411;SDS011;22445;52.100;5.176;2023-08-31T03:13:52;1.77;;;1.20;;
36411;SDS011;22445;52.100;5.176;2023-08-31T03:16:18;2.10;;;1.02;;
36411;SDS011;22445;52.100;5.176;2023-08-31T03:18:44;1.88;;;1.20;;
36411;SDS011;22445;52.100;5.176;2023-08-31T03:21:09;2.97;;;1.20;;
36411;SDS011;22445;52.100;5.176;2023-08-31T03:23:35;1.75;;;1.20;;
36411;SDS011;22445;52.100;5.176;2023-08-31T03:26:06;1.23;;;0.80;;
36411;SDS011;22445;52.100;5.176;2023-08-31T03:28:32;2.53;;;1.20;;
36411;SDS011;22445;52.100;5.176;2023-08-31T03:30:58;2.22;;;1.13;;
36411;SDS011;22445;52.100;5.176;2023-08-31T03:33:24;2.80;;;0.95;;
36411;SDS011;22445;52.100;5.176;2023-08-31T03:35:49;3.80;;;1.45;;
36411;SDS011;22445;52.100;5.176;2023-08-31T03:38:15;8.02;;;1.77;;
36411;SDS011;22445;52.100;5.176;2023-08-31T03:40:40;4.35;;;1.30;;
36411;SDS011;22445;52.100;5.176;2023-08-31T03:43:06;2.95;;;1.77;;
36411;SDS011;22445;52.100;5.176;2023-08-31T03:45:31;4.90;;;1.83;;
36411;SDS011;22445;52.100;5.176;2023-08-31T03:47:57;3.50;;;1.67;;
36411;SDS011;22445;52.100;5.176;2023-08-31T03:50:23;3.55;;;2.20;;
36411;SDS011;22445;52.100;5.176;2023-08-31T03:52:50;3.88;;;2.10;;
36411;SDS011;22445;52.100;5.176;2023-08-31T03:55:15;4.63;;;3.20;;
36411;SDS011;22445;52.100;5.176;2023-08-31T03:57:41;4.63;;;2.38;;
36411;SDS011;22445;52.100;5.176;2023-08-31T04:00:06;4.85;;;2.63;;
36411;SDS011;22445;52.100;5.176;2023-08-31T04:02:37;4.45;;;2.65;;
36411;SDS011;22445;52.100;5.176;2023-08-31T04:05:03;4.25;;;2.47;;
36411;SDS011;22445;52.100;5.176;2023-08-31T04:07:31;6.53;;;3.40;;
36411;SDS011;22445;52.100;5.176;2023-08-31T04:09:58;6.97;;;4.38;;
36411;SDS011;22445;52.100;5.176;2023-08-31T04:12:24;7.88;;;4.95;;
36411;SDS011;22445;52.100;5.176;2023-08-31T04:14:49;9.13;;;5.85;;
36411;SDS011;22445;52.100;5.176;2023-08-31T04:17:15;9.07;;;6.10;;
36411;SDS011;22445;52.100;5.176;2023-08-31T04:19:40;13.77;;;7.38;;
36411;SDS011;22445;52.100;5.176;2023-08-31T04:22:06;12.20;;;8.00;;
36411;SDS011;22445;52.100;5.176;2023-08-31T04:24:33;10.10;;;7.38;;
36411;SDS011;22445;52.100;5.176;2023-08-31T04:26:58;11.23;;;5.88;;
36411;SDS011;22445;52.100;5.176;2023-08-31T04:29:24;11.15;;;6.95;;
36411;SDS011;22445;52.100;5.176;2023-08-31T04:31:50;13.63;;;6.55;;
36411;SDS011;22445;52.100;5.176;2023-08-31T04:34:16;9.27;;;6.05;;
36411;SDS011;22445;52.100;5.176;2023-08-31T04:36:41;10.68;;;6.13;;
36411;SDS011;22445;52.100;5.176;2023-08-31T04:39:07;8.88;;;5.38;;
36411;SDS011;22445;52.100;5.176;2023-08-31T04:41:33;11.02;;;6.38;;
36411;SDS011;22445;52.100;5.176;2023-08-31T04:43:58;8.50;;;6.10;;
36411;SDS011;22445;52.100;5.176;2023-08-31T04:46:24;9.50;;;5.32;;
36411;SDS011;22445;52.100;5.176;2023-08-31T04:48:50;7.80;;;6.10;;
36411;SDS011;22445;52.100;5.176;2023-08-31T04:51:31;11.30;;;6.25;;
36411;SDS011;22445;52.100;5.176;2023-08-31T04:53:59;14.82;;;6.90;;
36411;SDS011;22445;52.100;5.176;2023-08-31T04:56:26;9.52;;;6.90;;
36411;SDS011;22445;52.100;5.176;2023-08-31T04:58:55;11.75;;;7.45;;
36411;SDS011;22445;52.100;5.176;2023-08-31T05:01:21;10.60;;;6.65;;
36411;SDS011;22445;52.100;5.176;2023-08-31T05:03:46;7.53;;;5.35;;
36411;SDS011;22445;52.100;5.176;2023-08-31T05:06:12;8.32;;;4.50;;
36411;SDS011;22445;52.100;5.176;2023-08-31T05:08:38;9.00;;;4.50;;
36411;SDS011;22445;52.100;5.176;2023-08-31T05:11:03;6.00;;;2.47;;
36411;SDS011;22445;52.100;5.176;2023-08-31T05:13:29;8.75;;;3.08;;
36411;SDS011;22445;52.100;5.176;2023-08-31T05:15:54;5.57;;;2.42;;
36411;SDS011;22445;52.100;5.176;2023-08-31T05:18:20;6.72;;;2.45;;
36411;SDS011;22445;52.100;5.176;2023-08-31T05:20:46;7.25;;;2.40;;
36411;SDS011;22445;52.100;5.176;2023-08-31T05:23:13;6.32;;;2.03;;
36411;SDS011;22445;52.100;5.176;2023-08-31T05:25:42;6.03;;;2.17;;
36411;SDS011;22445;52.100;5.176;2023-08-31T05:28:09;6.20;;;2.60;;
36411;SDS011;22445;52.100;5.176;2023-08-31T05:30:34;4.38;;;2.22;;
36411;SDS011;22445;52.100;5.176;2023-08-31T05:33:00;5.38;;;2.20;;
36411;SDS011;22445;52.100;5.176;2023-08-31T05:35:26;4.28;;;3.00;;
36411;SDS011;22445;52.100;5.176;2023-08-31T05:37:52;6.03;;;3.35;;
36411;SDS011;22445;52.100;5.176;2023-08-31T05:40:18;9.13;;;3.80;;
36411;SDS011;22445;52.100;5.176;2023-08-31T05:42:44;13.63;;;5.68;;
36411;SDS011;22445;52.100;5.176;2023-08-31T05:45:09;12.05;;;5.95;;
36411;SDS011;22445;52.100;5.176;2023-08-31T05:47:35;12.70;;;5.45;;
36411;SDS011;22445;52.100;5.176;2023-08-31T05:50:01;11.30;;;6.13;;
36411;SDS011;22445;52.100;5.176;2023-08-31T05:52:27;7.55;;;4.82;;
36411;SDS011;22445;52.100;5.176;2023-08-31T05:54:52;14.13;;;9.57;;
36411;SDS011;22445;52.100;5.176;2023-08-31T05:57:21;14.57;;;6.50;;
36411;SDS011;22445;52.100;5.176;2023-08-31T05:59:47;13.73;;;8.18;;
36411;SDS011;22445;52.100;5.176;2023-08-31T06:02:13;12.95;;;8.00;;
36411;SDS011;22445;52.100;5.176;2023-08-31T06:04:39;13.15;;;8.25;;
36411;SDS011;22445;52.100;5.176;2023-08-31T06:07:04;14.93;;;9.13;;
36411;SDS011;22445;52.100;5.176;2023-08-31T06:09:30;13.93;;;7.32;;
36411;SDS011;22445;52.100;5.176;2023-08-31T06:11:56;13.80;;;7.45;;
36411;SDS011;22445;52.100;5.176;2023-08-31T06:14:22;10.70;;;7.03;;
36411;SDS011;22445;52.100;5.176;2023-08-31T06:16:47;10.80;;;6.90;;
36411;SDS011;22445;52.100;5.176;2023-08-31T06:19:13;8.25;;;6.07;;
36411;SDS011;22445;52.100;5.176;2023-08-31T06:21:41;9.85;;;5.38;;
36411;SDS011;22445;52.100;5.176;2023-08-31T06:24:07;8.45;;;6.05;;
36411;SDS011;22445;52.100;5.176;2023-08-31T06:26:35;9.93;;;5.70;;
36411;SDS011;22445;52.100;5.176;2023-08-31T06:29:01;10.38;;;5.93;;
36411;SDS011;22445;52.100;5.176;2023-08-31T06:31:28;11.50;;;5.70;;
36411;SDS011;22445;52.100;5.176;2023-08-31T06:33:54;12.18;;;5.88;;
36411;SDS011;22445;52.100;5.176;2023-08-31T06:36:20;7.50;;;4.78;;
36411;SDS011;22445;52.100;5.176;2023-08-31T06:38:46;5.47;;;4.07;;
36411;SDS011;22445;52.100;5.176;2023-08-31T06:41:12;6.20;;;4.40;;
36411;SDS011;22445;52.100;5.176;2023-08-31T06:43:37;7.38;;;4.55;;
36411;SDS011;22445;52.100;5.176;2023-08-31T06:46:03;10.35;;;4.78;;
36411;SDS011;22445;52.100;5.176;2023-08-31T06:48:28;9.40;;;4.40;;
36411;SDS011;22445;52.100;5.176;2023-08-31T06:50:54;10.55;;;5.55;;
36411;SDS011;22445;52.100;5.176;2023-08-31T06:53:21;8.13;;;5.05;;
36411;SDS011;22445;52.100;5.176;2023-08-31T06:55:46;9.85;;;5.15;;
36411;SDS011;22445;52.100;5.176;2023-08-31T06:58:12;9.27;;;4.35;;
36411;SDS011;22445;52.100;5.176;2023-08-31T07:00:38;10.07;;;4.85;;
36411;SDS011;22445;52.100;5.176;2023-08-31T07:03:04;6.78;;;3.88;;
36411;SDS011;22445;52.100;5.176;2023-08-31T07:05:33;5.32;;;3.90;;
36411;SDS011;22445;52.100;5.176;2023-08-31T07:08:02;8.05;;;3.78;;
36411;SDS011;22445;52.100;5.176;2023-08-31T07:10:28;7.03;;;4.03;;
36411;SDS011;22445;52.100;5.176;2023-08-31T07:12:54;7.30;;;3.60;;
36411;SDS011;22445;52.100;5.176;2023-08-31T07:15:20;7.60;;;3.78;;
36411;SDS011;22445;52.100;5.176;2023-08-31T07:17:45;6.32;;;3.53;;
36411;SDS011;22445;52.100;5.176;2023-08-31T07:20:11;8.48;;;3.60;;
36411;SDS011;22445;52.100;5.176;2023-08-31T07:22:37;8.75;;;4.05;;
36411;SDS011;22445;52.100;5.176;2023-08-31T07:25:03;8.02;;;4.10;;
36411;SDS011;22445;52.100;5.176;2023-08-31T07:27:31;12.02;;;4.57;;
36411;SDS011;22445;52.100;5.176;2023-08-31T07:29:56;6.90;;;4.20;;
36411;SDS011;22445;52.100;5.176;2023-08-31T07:32:22;9.68;;;3.85;;
36411;SDS011;22445;52.100;5.176;2023-08-31T07:34:47;5.47;;;3.78;;
36411;SDS011;22445;52.100;5.176;2023-08-31T07:37:13;7.50;;;3.17;;
36411;SDS011;22445;52.100;5.176;2023-08-31T07:39:39;9.00;;;3.95;;
36411;SDS011;22445;52.100;5.176;2023-08-31T07:42:05;6.03;;;3.10;;
36411;SDS011;22445;52.100;5.176;2023-08-31T07:44:31;5.60;;;2.90;;
36411;SDS011;22445;52.100;5.176;2023-08-31T07:46:56;8.32;;;2.80;;
36411;SDS011;22445;52.100;5.176;2023-08-31T07:49:22;4.78;;;2.35;;
36411;SDS011;22445;52.100;5.176;2023-08-31T07:51:48;6.05;;;2.83;;
36411;SDS011;22445;52.100;5.176;2023-08-31T07:54:20;6.25;;;2.45;;
36411;SDS011;22445;52.100;5.176;2023-08-31T07:56:49;6.57;;;3.00;;
36411;SDS011;22445;52.100;5.176;2023-08-31T07:59:15;5.28;;;3.10;;
36411;SDS011;22445;52.100;5.176;2023-08-31T08:01:42;7.70;;;3.92;;
36411;SDS011;22445;52.100;5.176;2023-08-31T08:04:07;4.22;;;3.00;;
36411;SDS011;22445;52.100;5.176;2023-08-31T08:06:33;6.00;;;3.25;;
36411;SDS011;22445;52.100;5.176;2023-08-31T08:08:58;6.50;;;3.28;;
36411;SDS011;22445;52.100;5.176;2023-08-31T08:11:24;7.35;;;3.67;;
36411;SDS011;22445;52.100;5.176;2023-08-31T08:13:50;4.43;;;2.80;;
36411;SDS011;22445;52.100;5.176;2023-08-31T08:16:15;6.80;;;3.17;;
36411;SDS011;22445;52.100;5.176;2023-08-31T08:18:41;4.32;;;2.17;;
36411;SDS011;22445;52.100;5.176;2023-08-31T08:21:06;6.03;;;1.77;;
36411;SDS011;22445;52.100;5.176;2023-08-31T08:23:32;5.13;;;2.58;;
36411;SDS011;22445;52.100;5.176;2023-08-31T08:25:58;2.72;;;1.60;;
36411;SDS011;22445;52.100;5.176;2023-08-31T08:28:27;2.50;;;1.73;;
36411;SDS011;22445;52.100;5.176;2023-08-31T08:30:53;3.10;;;1.90;;
36411;SDS011;22445;52.100;5.176;2023-08-31T08:33:19;3.05;;;1.48;;
36411;SDS011;22445;52.100;5.176;2023-08-31T08:35:45;4.90;;;1.60;;
36411;SDS011;22445;52.100;5.176;2023-08-31T08:38:11;9.32;;;2.80;;
36411;SDS011;22445;52.100;5.176;2023-08-31T08:40:37;3.25;;;2.15;;
36411;SDS011;22445;52.100;5.176;2023-08-31T08:43:04;3.45;;;1.88;;
36411;SDS011;22445;52.100;5.176;2023-08-31T08:45:35;3.38;;;2.05;;
36411;SDS011;22445;52.100;5.176;2023-08-31T08:48:03;2.50;;;1.38;;
36411;SDS011;22445;52.100;5.176;2023-08-31T08:50:31;2.90;;;1.40;;
36411;SDS011;22445;52.100;5.176;2023-08-31T08:52:59;4.50;;;1.52;;
36411;SDS011;22445;52.100;5.176;2023-08-31T08:55:28;2.15;;;1.08;;
36411;SDS011;22445;52.100;5.176;2023-08-31T08:57:54;3.75;;;0.90;;
36411;SDS011;22445;52.100;5.176;2023-08-31T09:00:20;5.22;;;1.10;;
36411;SDS011;22445;52.100;5.176;2023-08-31T09:02:46;3.30;;;0.93;;
36411;SDS011;22445;52.100;5.176;2023-08-31T09:05:12;2.20;;;0.90;;
36411;SDS011;22445;52.100;5.176;2023-08-31T09:07:46;2.63;;;1.10;;
36411;SDS011;22445;52.100;5.176;2023-08-31T09:10:30;3.63;;;1.35;;
36411;SDS011;22445;52.100;5.176;2023-08-31T09:12:59;3.08;;;1.05;;
36411;SDS011;22445;52.100;5.176;2023-08-31T09:15:25;2.22;;;0.90;;
36411;SDS011;22445;52.100;5.176;2023-08-31T09:17:51;0.68;;;0.55;;
36411;SDS011;22445;52.100;5.176;2023-08-31T09:20:16;2.50;;;0.80;;
36411;SDS011;22445;52.100;5.176;2023-08-31T09:22:42;5.88;;;0.80;;
36411;SDS011;22445;52.100;5.176;2023-08-31T09:25:12;3.70;;;1.05;;
36411;SDS011;22445;52.100;5.176;2023-08-31T09:27:38;2.15;;;0.70;;
36411;SDS011;22445;52.100;5.176;2023-08-31T09:30:08;4.65;;;0.75;;
36411;SDS011;22445;52.100;5.176;2023-08-31T09:32:34;2.60;;;0.65;;
36411;SDS011;22445;52.100;5.176;2023-08-31T09:35:00;4.05;;;0.90;;
36411;SDS011;22445;52.100;5.176;2023-08-31T09:37:28;6.80;;;1.20;;
36411;SDS011;22445;52.100;5.176;2023-08-31T09:39:54;3.97;;;0.77;;
36411;SDS011;22445;52.100;5.176;2023-08-31T09:42:20;4.03;;;0.88;;
36411;SDS011;22445;52.100;5.176;2023-08-31T09:44:45;2.60;;;0.90;;
36411;SDS011;22445;52.100;5.176;2023-08-31T09:47:14;2.28;;;0.70;;
36411;SDS011;22445;52.100;5.176;2023-08-31T09:49:41;4.35;;;0.80;;
36411;SDS011;22445;52.100;5.176;2023-08-31T09:52:07;1.52;;;0.57;;
36411;SDS011;22445;52.100;5.176;2023-08-31T09:54:34;1.23;;;0.40;;
36411;SDS011;22445;52.100;5.176;2023-08-31T09:57:00;5.28;;;0.77;;
36411;SDS011;22445;52.100;5.176;2023-08-31T09:59:27;2.47;;;0.40;;
36411;SDS011;22445;52.100;5.176;2023-08-31T10:01:53;2.53;;;0.50;;
36411;SDS011;22445;52.100;5.176;2023-08-31T10:04:21;1.45;;;0.60;;
36411;SDS011;22445;52.100;5.176;2023-08-31T10:06:47;1.10;;;0.52;;
36411;SDS011;22445;52.100;5.176;2023-08-31T10:09:13;5.15;;;0.57;;
36411;SDS011;22445;52.100;5.176;2023-08-31T10:11:39;3.63;;;1.17;;
36411;SDS011;22445;52.100;5.176;2023-08-31T10:14:07;4.07;;;0.88;;
36411;SDS011;22445;52.100;5.176;2023-08-31T10:16:34;1.58;;;0.50;;
36411;SDS011;22445;52.100;5.176;2023-08-31T10:19:00;2.60;;;0.63;;
36411;SDS011;22445;52.100;5.176;2023-08-31T10:21:25;2.05;;;0.98;;
36411;SDS011;22445;52.100;5.176;2023-08-31T10:23:51;2.90;;;0.50;;
36411;SDS011;22445;52.100;5.176;2023-08-31T10:26:23;2.83;;;0.85;;
36411;SDS011;22445;52.100;5.176;2023-08-31T10:28:50;0.98;;;0.40;;
36411;SDS011;22445;52.100;5.176;2023-08-31T10:31:16;2.33;;;0.70;;
36411;SDS011;22445;52.100;5.176;2023-08-31T10:33:43;0.95;;;0.30;;
36411;SDS011;22445;52.100;5.176;2023-08-31T10:36:13;2.00;;;0.57;;
36411;SDS011;22445;52.100;5.176;2023-08-31T10:39:00;1.20;;;0.32;;
36411;SDS011;22445;52.100;5.176;2023-08-31T10:41:33;3.40;;;0.60;;
36411;SDS011;22445;52.100;5.176;2023-08-31T10:44:00;0.85;;;0.40;;
36411;SDS011;22445;52.100;5.176;2023-08-31T10:46:32;1.98;;;0.45;;
36411;SDS011;22445;52.100;5.176;2023-08-31T10:49:00;2.42;;;0.57;;
36411;SDS011;22445;52.100;5.176;2023-08-31T10:55:04;1.60;;;0.65;;
36411;SDS011;22445;52.100;5.176;2023-08-31T10:57:30;2.75;;;0.50;;
36411;SDS011;22445;52.100;5.176;2023-08-31T10:59:59;1.77;;;0.40;;
36411;SDS011;22445;52.100;5.176;2023-08-31T11:05:14;0.60;;;0.40;;
36411;SDS011;22445;52.100;5.176;2023-08-31T11:07:46;0.90;;;0.45;;
36411;SDS011;22445;52.100;5.176;2023-08-31T11:12:58;1.15;;;0.30;;
36411;SDS011;22445;52.100;5.176;2023-08-31T11:15:25;1.55;;;0.45;;
36411;SDS011;22445;52.100;5.176;2023-08-31T11:17:51;1.98;;;0.50;;
36411;SDS011;22445;52.100;5.176;2023-08-31T11:20:18;1.00;;;0.50;;
36411;SDS011;22445;52.100;5.176;2023-08-31T11:22:48;2.45;;;0.80;;
36411;SDS011;22445;52.100;5.176;2023-08-31T11:25:15;1.23;;;0.40;;
36411;SDS011;22445;52.100;5.176;2023-08-31T11:27:41;1.55;;;0.45;;
36411;SDS011;22445;52.100;5.176;2023-08-31T11:30:15;1.45;;;0.50;;
36411;SDS011;22445;52.100;5.176;2023-08-31T11:32:52;1.65;;;0.50;;
36411;SDS011;22445;52.100;5.176;2023-08-31T11:35:19;2.35;;;0.60;;
36411;SDS011;22445;52.100;5.176;2023-08-31T11:37:49;1.52;;;0.55;;
36411;SDS011;22445;52.100;5.176;2023-08-31T11:40:16;1.65;;;0.80;;
36411;SDS011;22445;52.100;5.176;2023-08-31T11:42:41;1.17;;;0.40;;
36411;SDS011;22445;52.100;5.176;2023-08-31T11:45:07;2.28;;;0.50;;
36411;SDS011;22445;52.100;5.176;2023-08-31T11:47:35;1.35;;;0.50;;
36411;SDS011;22445;52.100;5.176;2023-08-31T11:50:00;2.83;;;0.68;;
36411;SDS011;22445;52.100;5.176;2023-08-31T11:52:30;0.75;;;0.40;;
36411;SDS011;22445;52.100;5.176;2023-08-31T11:54:56;1.15;;;0.50;;
36411;SDS011;22445;52.100;5.176;2023-08-31T11:57:25;2.33;;;0.55;;
36411;SDS011;22445;52.100;5.176;2023-08-31T11:59:51;1.45;;;0.60;;
36411;SDS011;22445;52.100;5.176;2023-08-31T12:02:20;1.00;;;0.30;;
36411;SDS011;22445;52.100;5.176;2023-08-31T12:04:46;2.55;;;0.43;;
36411;SDS011;22445;52.100;5.176;2023-08-31T12:07:16;0.80;;;0.60;;
36411;SDS011;22445;52.100;5.176;2023-08-31T12:09:42;1.27;;;0.63;;
36411;SDS011;22445;52.100;5.176;2023-08-31T12:12:14;1.85;;;0.68;;
36411;SDS011;22445;52.100;5.176;2023-08-31T12:14:43;1.83;;;0.60;;
36411;SDS011;22445;52.100;5.176;2023-08-31T12:17:08;1.05;;;0.45;;
36411;SDS011;22445;52.100;5.176;2023-08-31T12:19:37;1.80;;;0.70;;
36411;SDS011;22445;52.100;5.176;2023-08-31T12:22:06;1.13;;;0.50;;
36411;SDS011;22445;52.100;5.176;2023-08-31T12:24:40;2.22;;;0.77;;
36411;SDS011;22445;52.100;5.176;2023-08-31T12:27:07;1.63;;;0.80;;
36411;SDS011;22445;52.100;5.176;2023-08-31T12:29:36;2.67;;;0.68;;
36411;SDS011;22445;52.100;5.176;2023-08-31T12:32:02;1.67;;;0.70;;
36411;SDS011;22445;52.100;5.176;2023-08-31T12:34:28;0.95;;;0.63;;
36411;SDS011;22445;52.100;5.176;2023-08-31T12:36:56;0.70;;;0.40;;
36411;SDS011;22445;52.100;5.176;2023-08-31T12:39:25;1.65;;;0.55;;
36411;SDS011;22445;52.100;5.176;2023-08-31T12:41:51;0.80;;;0.47;;
36411;SDS011;22445;52.100;5.176;2023-08-31T12:44:17;4.30;;;0.70;;
36411;SDS011;22445;52.100;5.176;2023-08-31T12:46:43;1.35;;;0.50;;
36411;SDS011;22445;52.100;5.176;2023-08-31T12:49:08;2.00;;;0.60;;
36411;SDS011;22445;52.100;5.176;2023-08-31T12:51:34;2.50;;;0.50;;
36411;SDS011;22445;52.100;5.176;2023-08-31T12:53:59;1.60;;;0.93;;
36411;SDS011;22445;52.100;5.176;2023-08-31T12:56:25;1.20;;;0.60;;
36411;SDS011;22445;52.100;5.176;2023-08-31T12:58:51;0.90;;;0.55;;
36411;SDS011;22445;52.100;5.176;2023-08-31T13:01:18;2.20;;;0.73;;
36411;SDS011;22445;52.100;5.176;2023-08-31T13:03:45;2.50;;;0.50;;
36411;SDS011;22445;52.100;5.176;2023-08-31T13:06:11;1.60;;;0.68;;
36411;SDS011;22445;52.100;5.176;2023-08-31T13:08:37;4.80;;;0.60;;
36411;SDS011;22445;52.100;5.176;2023-08-31T13:11:02;1.17;;;0.60;;
36411;SDS011;22445;52.100;5.176;2023-08-31T13:13:30;1.58;;;0.60;;
36411;SDS011;22445;52.100;5.176;2023-08-31T13:15:56;1.27;;;0.50;;
36411;SDS011;22445;52.100;5.176;2023-08-31T13:18:22;2.05;;;0.45;;
36411;SDS011;22445;52.100;5.176;2023-08-31T13:20:48;1.35;;;0.38;;
36411;SDS011;22445;52.100;5.176;2023-08-31T13:23:15;1.38;;;0.35;;
36411;SDS011;22445;52.100;5.176;2023-08-31T13:25:41;2.47;;;0.80;;
36411;SDS011;22445;52.100;5.176;2023-08-31T13:28:06;1.95;;;0.70;;
36411;SDS011;22445;52.100;5.176;2023-08-31T13:30:32;1.60;;;0.47;;
36411;SDS011;22445;52.100;5.176;2023-08-31T13:32:57;2.03;;;0.70;;
36411;SDS011;22445;52.100;5.176;2023-08-31T13:35:23;0.85;;;0.38;;
36411;SDS011;22445;52.100;5.176;2023-08-31T13:37:49;1.75;;;0.63;;
36411;SDS011;22445;52.100;5.176;2023-08-31T13:40:14;2.35;;;0.85;;
36411;SDS011;22445;52.100;5.176;2023-08-31T13:42:48;2.40;;;0.60;;
36411;SDS011;22445;52.100;5.176;2023-08-31T13:45:19;3.53;;;0.77;;
36411;SDS011;22445;52.100;5.176;2023-08-31T13:47:44;2.30;;;0.60;;
36411;SDS011;22445;52.100;5.176;2023-08-31T13:50:14;1.95;;;0.55;;
36411;SDS011;22445;52.100;5.176;2023-08-31T13:52:40;1.85;;;0.60;;
36411;SDS011;22445;52.100;5.176;2023-08-31T13:55:06;1.42;;;0.80;;
36411;SDS011;22445;52.100;5.176;2023-08-31T13:57:32;1.38;;;0.45;;
36411;SDS011;22445;52.100;5.176;2023-08-31T13:59:58;1.77;;;0.73;;
36411;SDS011;22445;52.100;5.176;2023-08-31T14:02:25;1.25;;;0.70;;
36411;SDS011;22445;52.100;5.176;2023-08-31T14:04:50;4.47;;;0.50;;
36411;SDS011;22445;52.100;5.176;2023-08-31T14:07:16;1.17;;;0.50;;
36411;SDS011;22445;52.100;5.176;2023-08-31T14:09:42;0.98;;;0.40;;
36411;SDS011;22445;52.100;5.176;2023-08-31T14:12:08;1.52;;;0.88;;
36411;SDS011;22445;52.100;5.176;2023-08-31T14:14:34;1.65;;;0.65;;
36411;SDS011;22445;52.100;5.176;2023-08-31T14:17:00;1.88;;;0.80;;
36411;SDS011;22445;52.100;5.176;2023-08-31T14:19:25;2.60;;;0.50;;
36411;SDS011;22445;52.100;5.176;2023-08-31T14:21:51;1.90;;;0.70;;
36411;SDS011;22445;52.100;5.176;2023-08-31T14:24:18;1.88;;;0.70;;
36411;SDS011;22445;52.100;5.176;2023-08-31T14:26:44;2.63;;;0.95;;
36411;SDS011;22445;52.100;5.176;2023-08-31T14:29:10;2.92;;;0.60;;
36411;SDS011;22445;52.100;5.176;2023-08-31T14:31:37;1.15;;;0.52;;
36411;SDS011;22445;52.100;5.176;2023-08-31T14:34:03;1.45;;;0.55;;
36411;SDS011;22445;52.100;5.176;2023-08-31T14:36:28;3.67;;;0.70;;
36411;SDS011;22445;52.100;5.176;2023-08-31T14:38:54;1.85;;;0.70;;
36411;SDS011;22445;52.100;5.176;2023-08-31T14:41:19;2.92;;;0.70;;
36411;SDS011;22445;52.100;5.176;2023-08-31T14:43:46;1.10;;;0.68;;
36411;SDS011;22445;52.100;5.176;2023-08-31T14:46:11;3.90;;;0.65;;
36411;SDS011;22445;52.100;5.176;2023-08-31T14:48:37;1.08;;;0.60;;
36411;SDS011;22445;52.100;5.176;2023-08-31T14:51:02;1.17;;;0.70;;
36411;SDS011;22445;52.100;5.176;2023-08-31T14:53:28;1.75;;;0.68;;
36411;SDS011;22445;52.100;5.176;2023-08-31T14:55:54;0.98;;;0.68;;